Terminal Aerodrome Forecast
Issued by NWS Nashville, TN

Home | Current Version | Previous Version | Text Only | Print | Product List | Glossary On
Versions: 1 2 3 4 5 6 7 8 9 10 11 12 13 14 15 16 17
000
FTUS44 KOHX 311100
TAFCSV
TAF
KCSV 311120Z 3112/0112 00000KT P6SM OVC080
     FM311500 29007KT P6SM -SHRA OVC050
     FM311900 31009KT 6SM -SHRA BR OVC025
     FM312100 31012KT 5SM -SHRA BR OVC015
     FM010000 32013G23KT P6SM VCSH OVC010
     FM010400 31014G24KT P6SM -SHSN OVC007=

USA.gov is the U.S. government's official web portal to all federal, state and local government web resources and services.